sensor_id;sensor_type;location;lat;lon;timestamp;P1;durP1;ratioP1;P2;durP2;ratioP2
5688;SDS011;2869;50.432;8.680;2022-10-16T00:02:12;5.80;;;2.70;;
5688;SDS011;2869;50.432;8.680;2022-10-16T00:04:39;4.97;;;2.80;;
5688;SDS011;2869;50.432;8.680;2022-10-16T00:07:05;6.20;;;2.37;;
5688;SDS011;2869;50.432;8.680;2022-10-16T00:09:32;3.13;;;2.93;;
5688;SDS011;2869;50.432;8.680;2022-10-16T00:11:59;5.10;;;2.50;;
5688;SDS011;2869;50.432;8.680;2022-10-16T00:14:27;2.97;;;2.70;;
5688;SDS011;2869;50.432;8.680;2022-10-16T00:16:53;3.77;;;2.50;;
5688;SDS011;2869;50.432;8.680;2022-10-16T00:19:20;5.87;;;2.87;;
5688;SDS011;2869;50.432;8.680;2022-10-16T00:21:47;2.93;;;2.53;;
5688;SDS011;2869;50.432;8.680;2022-10-16T00:24:13;2.50;;;2.30;;
5688;SDS011;2869;50.432;8.680;2022-10-16T00:26:40;8.33;;;2.43;;
5688;SDS011;2869;50.432;8.680;2022-10-16T00:29:07;2.67;;;2.50;;
5688;SDS011;2869;50.432;8.680;2022-10-16T00:31:36;4.83;;;2.70;;
5688;SDS011;2869;50.432;8.680;2022-10-16T00:34:02;3.20;;;2.90;;
5688;SDS011;2869;50.432;8.680;2022-10-16T00:36:29;6.00;;;2.80;;
5688;SDS011;2869;50.432;8.680;2022-10-16T00:38:57;2.93;;;2.73;;
5688;SDS011;2869;50.432;8.680;2022-10-16T00:41:25;3.53;;;3.13;;
5688;SDS011;2869;50.432;8.680;2022-10-16T00:43:53;3.40;;;3.10;;
5688;SDS011;2869;50.432;8.680;2022-10-16T00:46:22;3.63;;;3.27;;
5688;SDS011;2869;50.432;8.680;2022-10-16T00:48:52;3.90;;;3.60;;
5688;SDS011;2869;50.432;8.680;2022-10-16T00:51:23;3.90;;;3.60;;
5688;SDS011;2869;50.432;8.680;2022-10-16T00:53:54;4.63;;;3.73;;
5688;SDS011;2869;50.432;8.680;2022-10-16T00:56:22;4.10;;;3.80;;
5688;SDS011;2869;50.432;8.680;2022-10-16T00:58:48;5.40;;;3.57;;
5688;SDS011;2869;50.432;8.680;2022-10-16T01:01:15;4.30;;;3.90;;
5688;SDS011;2869;50.432;8.680;2022-10-16T01:03:42;6.30;;;3.93;;
5688;SDS011;2869;50.432;8.680;2022-10-16T01:06:11;5.37;;;4.07;;
5688;SDS011;2869;50.432;8.680;2022-10-16T01:08:53;7.60;;;4.17;;
5688;SDS011;2869;50.432;8.680;2022-10-16T01:11:33;7.93;;;3.93;;
5688;SDS011;2869;50.432;8.680;2022-10-16T01:14:06;4.17;;;3.87;;
5688;SDS011;2869;50.432;8.680;2022-10-16T01:16:42;6.40;;;3.37;;
5688;SDS011;2869;50.432;8.680;2022-10-16T01:19:15;3.77;;;3.57;;
5688;SDS011;2869;50.432;8.680;2022-10-16T01:21:47;3.70;;;3.50;;
5688;SDS011;2869;50.432;8.680;2022-10-16T01:24:18;9.47;;;3.27;;
5688;SDS011;2869;50.432;8.680;2022-10-16T01:27:03;3.37;;;3.17;;
5688;SDS011;2869;50.432;8.680;2022-10-16T01:29:39;3.47;;;3.27;;
5688;SDS011;2869;50.432;8.680;2022-10-16T01:32:23;3.70;;;3.23;;
5688;SDS011;2869;50.432;8.680;2022-10-16T01:34:55;6.60;;;3.90;;
5688;SDS011;2869;50.432;8.680;2022-10-16T01:37:31;10.50;;;3.80;;
5688;SDS011;2869;50.432;8.680;2022-10-16T01:40:00;4.40;;;3.50;;
5688;SDS011;2869;50.432;8.680;2022-10-16T01:42:33;3.97;;;3.17;;
5688;SDS011;2869;50.432;8.680;2022-10-16T01:45:03;3.57;;;3.27;;
5688;SDS011;2869;50.432;8.680;2022-10-16T01:47:32;4.50;;;3.37;;
5688;SDS011;2869;50.432;8.680;2022-10-16T01:50:01;9.53;;;3.50;;
5688;SDS011;2869;50.432;8.680;2022-10-16T01:52:29;6.20;;;3.27;;
5688;SDS011;2869;50.432;8.680;2022-10-16T01:54:58;3.90;;;3.53;;
5688;SDS011;2869;50.432;8.680;2022-10-16T01:57:27;11.10;;;3.67;;
5688;SDS011;2869;50.432;8.680;2022-10-16T01:59:58;3.87;;;3.57;;
5688;SDS011;2869;50.432;8.680;2022-10-16T02:02:30;3.67;;;3.37;;
5688;SDS011;2869;50.432;8.680;2022-10-16T02:04:58;11.80;;;3.30;;
5688;SDS011;2869;50.432;8.680;2022-10-16T02:07:29;9.00;;;3.83;;
5688;SDS011;2869;50.432;8.680;2022-10-16T02:09:56;4.40;;;3.20;;
5688;SDS011;2869;50.432;8.680;2022-10-16T02:12:24;8.13;;;4.10;;
5688;SDS011;2869;50.432;8.680;2022-10-16T02:14:53;4.30;;;3.90;;
5688;SDS011;2869;50.432;8.680;2022-10-16T02:17:21;3.90;;;3.57;;
5688;SDS011;2869;50.432;8.680;2022-10-16T02:19:49;8.53;;;3.20;;
5688;SDS011;2869;50.432;8.680;2022-10-16T02:22:20;6.43;;;3.03;;
5688;SDS011;2869;50.432;8.680;2022-10-16T02:24:51;5.60;;;3.70;;
5688;SDS011;2869;50.432;8.680;2022-10-16T02:27:24;9.40;;;3.03;;
5688;SDS011;2869;50.432;8.680;2022-10-16T02:29:54;4.00;;;3.67;;
5688;SDS011;2869;50.432;8.680;2022-10-16T02:32:27;5.80;;;3.20;;
5688;SDS011;2869;50.432;8.680;2022-10-16T02:34:57;3.93;;;2.80;;
5688;SDS011;2869;50.432;8.680;2022-10-16T02:37:25;3.73;;;3.37;;
5688;SDS011;2869;50.432;8.680;2022-10-16T02:39:53;12.47;;;3.67;;
5688;SDS011;2869;50.432;8.680;2022-10-16T02:42:21;3.53;;;3.23;;
5688;SDS011;2869;50.432;8.680;2022-10-16T02:44:54;5.70;;;2.87;;
5688;SDS011;2869;50.432;8.680;2022-10-16T02:47:21;3.23;;;3.03;;
5688;SDS011;2869;50.432;8.680;2022-10-16T02:49:49;8.93;;;3.53;;
5688;SDS011;2869;50.432;8.680;2022-10-16T02:52:15;3.70;;;2.77;;
5688;SDS011;2869;50.432;8.680;2022-10-16T02:54:42;17.60;;;3.20;;
5688;SDS011;2869;50.432;8.680;2022-10-16T02:57:09;7.10;;;3.20;;
5688;SDS011;2869;50.432;8.680;2022-10-16T02:59:35;2.87;;;2.67;;
5688;SDS011;2869;50.432;8.680;2022-10-16T03:02:02;4.17;;;3.07;;
5688;SDS011;2869;50.432;8.680;2022-10-16T03:04:29;5.43;;;3.43;;
5688;SDS011;2869;50.432;8.680;2022-10-16T03:06:57;4.10;;;3.27;;
5688;SDS011;2869;50.432;8.680;2022-10-16T03:09:23;4.40;;;3.10;;
5688;SDS011;2869;50.432;8.680;2022-10-16T03:11:50;4.27;;;2.90;;
5688;SDS011;2869;50.432;8.680;2022-10-16T03:14:17;3.30;;;3.10;;
5688;SDS011;2869;50.432;8.680;2022-10-16T03:16:43;3.93;;;3.37;;
5688;SDS011;2869;50.432;8.680;2022-10-16T03:19:10;5.07;;;3.80;;
5688;SDS011;2869;50.432;8.680;2022-10-16T03:21:37;3.83;;;3.53;;
5688;SDS011;2869;50.432;8.680;2022-10-16T03:24:05;3.60;;;3.30;;
5688;SDS011;2869;50.432;8.680;2022-10-16T03:26:32;4.00;;;3.70;;
5688;SDS011;2869;50.432;8.680;2022-10-16T03:28:58;3.70;;;3.40;;
5688;SDS011;2869;50.432;8.680;2022-10-16T03:31:25;9.63;;;3.80;;
5688;SDS011;2869;50.432;8.680;2022-10-16T03:33:52;3.70;;;3.40;;
5688;SDS011;2869;50.432;8.680;2022-10-16T03:36:18;3.70;;;3.40;;
5688;SDS011;2869;50.432;8.680;2022-10-16T03:38:45;4.53;;;3.20;;
5688;SDS011;2869;50.432;8.680;2022-10-16T03:41:13;3.83;;;3.53;;
5688;SDS011;2869;50.432;8.680;2022-10-16T03:43:39;3.40;;;3.10;;
5688;SDS011;2869;50.432;8.680;2022-10-16T03:46:06;10.40;;;3.30;;
5688;SDS011;2869;50.432;8.680;2022-10-16T03:48:33;4.10;;;3.70;;
5688;SDS011;2869;50.432;8.680;2022-10-16T03:50:59;10.10;;;3.30;;
5688;SDS011;2869;50.432;8.680;2022-10-16T03:53:26;5.87;;;3.53;;
5688;SDS011;2869;50.432;8.680;2022-10-16T03:55:53;5.63;;;3.40;;
5688;SDS011;2869;50.432;8.680;2022-10-16T03:58:21;5.73;;;3.90;;
5688;SDS011;2869;50.432;8.680;2022-10-16T04:00:47;10.90;;;3.97;;
5688;SDS011;2869;50.432;8.680;2022-10-16T04:03:14;6.30;;;3.90;;
5688;SDS011;2869;50.432;8.680;2022-10-16T04:05:42;5.93;;;3.17;;
5688;SDS011;2869;50.432;8.680;2022-10-16T04:08:08;3.77;;;3.47;;
5688;SDS011;2869;50.432;8.680;2022-10-16T04:10:35;5.93;;;3.17;;
5688;SDS011;2869;50.432;8.680;2022-10-16T04:13:02;4.27;;;3.00;;
5688;SDS011;2869;50.432;8.680;2022-10-16T04:15:30;6.33;;;3.10;;
5688;SDS011;2869;50.432;8.680;2022-10-16T04:17:57;4.47;;;2.97;;
5688;SDS011;2869;50.432;8.680;2022-10-16T04:20:23;6.03;;;2.80;;
5688;SDS011;2869;50.432;8.680;2022-10-16T04:22:50;3.10;;;2.90;;
5688;SDS011;2869;50.432;8.680;2022-10-16T04:25:17;10.67;;;3.33;;
5688;SDS011;2869;50.432;8.680;2022-10-16T04:27:44;3.60;;;3.20;;
5688;SDS011;2869;50.432;8.680;2022-10-16T04:30:10;3.10;;;2.80;;
5688;SDS011;2869;50.432;8.680;2022-10-16T04:32:39;2.43;;;2.33;;
5688;SDS011;2869;50.432;8.680;2022-10-16T04:35:06;2.57;;;2.37;;
5688;SDS011;2869;50.432;8.680;2022-10-16T04:37:33;2.60;;;2.40;;
5688;SDS011;2869;50.432;8.680;2022-10-16T04:40:00;7.43;;;2.27;;
5688;SDS011;2869;50.432;8.680;2022-10-16T04:42:27;2.10;;;1.90;;
5688;SDS011;2869;50.432;8.680;2022-10-16T04:44:53;2.10;;;2.00;;
5688;SDS011;2869;50.432;8.680;2022-10-16T04:47:20;2.83;;;2.10;;
5688;SDS011;2869;50.432;8.680;2022-10-16T04:49:48;5.73;;;2.20;;
5688;SDS011;2869;50.432;8.680;2022-10-16T04:52:15;6.13;;;2.63;;
5688;SDS011;2869;50.432;8.680;2022-10-16T04:54:42;2.23;;;2.13;;
5688;SDS011;2869;50.432;8.680;2022-10-16T04:57:10;3.30;;;2.30;;
5688;SDS011;2869;50.432;8.680;2022-10-16T04:59:36;4.30;;;2.10;;
5688;SDS011;2869;50.432;8.680;2022-10-16T05:02:03;3.50;;;2.47;;
5688;SDS011;2869;50.432;8.680;2022-10-16T05:04:30;3.23;;;2.30;;
5688;SDS011;2869;50.432;8.680;2022-10-16T05:06:58;2.37;;;2.20;;
5688;SDS011;2869;50.432;8.680;2022-10-16T05:09:24;4.23;;;2.30;;
5688;SDS011;2869;50.432;8.680;2022-10-16T05:11:51;4.70;;;2.00;;
5688;SDS011;2869;50.432;8.680;2022-10-16T05:14:17;2.43;;;2.20;;
5688;SDS011;2869;50.432;8.680;2022-10-16T05:16:44;2.23;;;2.07;;
5688;SDS011;2869;50.432;8.680;2022-10-16T05:19:13;3.20;;;2.20;;
5688;SDS011;2869;50.432;8.680;2022-10-16T05:21:39;5.17;;;2.33;;
5688;SDS011;2869;50.432;8.680;2022-10-16T05:24:07;4.17;;;2.30;;
5688;SDS011;2869;50.432;8.680;2022-10-16T05:26:34;5.37;;;2.23;;
5688;SDS011;2869;50.432;8.680;2022-10-16T05:29:01;7.60;;;2.20;;
5688;SDS011;2869;50.432;8.680;2022-10-16T05:31:28;2.70;;;2.13;;
5688;SDS011;2869;50.432;8.680;2022-10-16T05:33:57;5.70;;;2.37;;
5688;SDS011;2869;50.432;8.680;2022-10-16T05:36:25;2.33;;;2.23;;
5688;SDS011;2869;50.432;8.680;2022-10-16T05:38:52;4.23;;;2.30;;
5688;SDS011;2869;50.432;8.680;2022-10-16T05:41:20;7.80;;;2.40;;
5688;SDS011;2869;50.432;8.680;2022-10-16T05:43:48;4.63;;;2.23;;
5688;SDS011;2869;50.432;8.680;2022-10-16T05:46:15;2.73;;;2.53;;
5688;SDS011;2869;50.432;8.680;2022-10-16T05:48:42;2.93;;;2.63;;
5688;SDS011;2869;50.432;8.680;2022-10-16T05:51:10;3.73;;;2.70;;
5688;SDS011;2869;50.432;8.680;2022-10-16T05:53:38;4.50;;;2.60;;
5688;SDS011;2869;50.432;8.680;2022-10-16T05:56:06;3.07;;;2.80;;
5688;SDS011;2869;50.432;8.680;2022-10-16T05:58:37;9.63;;;2.67;;
5688;SDS011;2869;50.432;8.680;2022-10-16T06:01:06;2.97;;;2.70;;
5688;SDS011;2869;50.432;8.680;2022-10-16T06:03:33;3.03;;;2.83;;
5688;SDS011;2869;50.432;8.680;2022-10-16T06:06:06;2.70;;;2.50;;
5688;SDS011;2869;50.432;8.680;2022-10-16T06:08:34;4.33;;;3.20;;
5688;SDS011;2869;50.432;8.680;2022-10-16T06:11:01;3.20;;;3.00;;
5688;SDS011;2869;50.432;8.680;2022-10-16T06:13:28;5.30;;;2.90;;
5688;SDS011;2869;50.432;8.680;2022-10-16T06:15:57;5.03;;;3.33;;
5688;SDS011;2869;50.432;8.680;2022-10-16T06:18:25;5.53;;;3.53;;
5688;SDS011;2869;50.432;8.680;2022-10-16T06:20:52;4.53;;;3.33;;
5688;SDS011;2869;50.432;8.680;2022-10-16T06:23:19;4.10;;;3.80;;
5688;SDS011;2869;50.432;8.680;2022-10-16T06:25:46;3.47;;;3.17;;
5688;SDS011;2869;50.432;8.680;2022-10-16T06:28:13;4.50;;;4.10;;
5688;SDS011;2869;50.432;8.680;2022-10-16T06:30:40;4.90;;;4.00;;
5688;SDS011;2869;50.432;8.680;2022-10-16T06:33:10;4.70;;;4.40;;
5688;SDS011;2869;50.432;8.680;2022-10-16T06:35:36;9.17;;;4.80;;
5688;SDS011;2869;50.432;8.680;2022-10-16T06:38:03;9.10;;;4.60;;
5688;SDS011;2869;50.432;8.680;2022-10-16T06:40:30;9.80;;;5.43;;
5688;SDS011;2869;50.432;8.680;2022-10-16T06:42:56;11.20;;;5.87;;
5688;SDS011;2869;50.432;8.680;2022-10-16T06:45:23;9.83;;;5.93;;
5688;SDS011;2869;50.432;8.680;2022-10-16T06:47:50;9.27;;;6.10;;
5688;SDS011;2869;50.432;8.680;2022-10-16T06:50:18;7.67;;;6.03;;
5688;SDS011;2869;50.432;8.680;2022-10-16T06:52:44;7.47;;;6.20;;
5688;SDS011;2869;50.432;8.680;2022-10-16T06:55:11;6.13;;;5.63;;
5688;SDS011;2869;50.432;8.680;2022-10-16T06:57:38;7.63;;;5.97;;
5688;SDS011;2869;50.432;8.680;2022-10-16T07:00:05;5.33;;;4.93;;
5688;SDS011;2869;50.432;8.680;2022-10-16T07:02:32;9.10;;;5.80;;
5688;SDS011;2869;50.432;8.680;2022-10-16T07:04:59;8.50;;;6.00;;
5688;SDS011;2869;50.432;8.680;2022-10-16T07:07:27;9.40;;;6.80;;
5688;SDS011;2869;50.432;8.680;2022-10-16T07:09:54;8.60;;;6.97;;
5688;SDS011;2869;50.432;8.680;2022-10-16T07:12:20;10.10;;;5.80;;
5688;SDS011;2869;50.432;8.680;2022-10-16T07:14:47;8.20;;;6.47;;
5688;SDS011;2869;50.432;8.680;2022-10-16T07:17:17;7.73;;;6.40;;
5688;SDS011;2869;50.432;8.680;2022-10-16T07:19:44;5.73;;;5.20;;
5688;SDS011;2869;50.432;8.680;2022-10-16T07:22:11;9.80;;;5.77;;
5688;SDS011;2869;50.432;8.680;2022-10-16T07:24:39;5.77;;;5.27;;
5688;SDS011;2869;50.432;8.680;2022-10-16T07:27:05;5.90;;;5.40;;
5688;SDS011;2869;50.432;8.680;2022-10-16T07:29:32;9.07;;;6.27;;
5688;SDS011;2869;50.432;8.680;2022-10-16T07:31:59;6.80;;;5.67;;
5688;SDS011;2869;50.432;8.680;2022-10-16T07:34:25;6.60;;;6.00;;
5688;SDS011;2869;50.432;8.680;2022-10-16T07:36:52;9.20;;;7.43;;
5688;SDS011;2869;50.432;8.680;2022-10-16T07:39:19;28.90;;;19.13;;
5688;SDS011;2869;50.432;8.680;2022-10-16T07:41:47;28.63;;;17.80;;
5688;SDS011;2869;50.432;8.680;2022-10-16T07:44:15;22.60;;;13.70;;
5688;SDS011;2869;50.432;8.680;2022-10-16T07:46:41;15.77;;;10.20;;
5688;SDS011;2869;50.432;8.680;2022-10-16T07:49:08;9.00;;;7.70;;
5688;SDS011;2869;50.432;8.680;2022-10-16T07:51:35;12.67;;;7.63;;
5688;SDS011;2869;50.432;8.680;2022-10-16T07:54:03;8.87;;;8.00;;
5688;SDS011;2869;50.432;8.680;2022-10-16T07:56:30;18.97;;;8.60;;
5688;SDS011;2869;50.432;8.680;2022-10-16T07:58:58;12.37;;;8.00;;
5688;SDS011;2869;50.432;8.680;2022-10-16T08:01:25;10.10;;;7.57;;
5688;SDS011;2869;50.432;8.680;2022-10-16T08:03:52;16.47;;;8.13;;
5688;SDS011;2869;50.432;8.680;2022-10-16T08:06:20;16.50;;;9.20;;
5688;SDS011;2869;50.432;8.680;2022-10-16T08:08:48;14.83;;;10.07;;
5688;SDS011;2869;50.432;8.680;2022-10-16T08:11:14;22.37;;;15.60;;
5688;SDS011;2869;50.432;8.680;2022-10-16T08:13:41;26.53;;;15.27;;
5688;SDS011;2869;50.432;8.680;2022-10-16T08:16:09;15.90;;;14.10;;
5688;SDS011;2869;50.432;8.680;2022-10-16T08:18:36;17.90;;;15.97;;
5688;SDS011;2869;50.432;8.680;2022-10-16T08:21:04;26.10;;;20.87;;
5688;SDS011;2869;50.432;8.680;2022-10-16T08:23:31;33.93;;;22.97;;
5688;SDS011;2869;50.432;8.680;2022-10-16T08:26:01;19.00;;;14.23;;
5688;SDS011;2869;50.432;8.680;2022-10-16T08:28:29;61.90;;;35.90;;
5688;SDS011;2869;50.432;8.680;2022-10-16T08:30:56;46.40;;;27.50;;
5688;SDS011;2869;50.432;8.680;2022-10-16T08:33:32;8.90;;;7.70;;
5688;SDS011;2869;50.432;8.680;2022-10-16T08:35:59;13.70;;;10.80;;
5688;SDS011;2869;50.432;8.680;2022-10-16T08:38:26;20.13;;;16.00;;
5688;SDS011;2869;50.432;8.680;2022-10-16T08:40:53;16.73;;;13.67;;
5688;SDS011;2869;50.432;8.680;2022-10-16T08:43:28;14.20;;;9.63;;
5688;SDS011;2869;50.432;8.680;2022-10-16T08:46:08;10.30;;;7.10;;
5688;SDS011;2869;50.432;8.680;2022-10-16T08:48:47;10.50;;;8.23;;
5688;SDS011;2869;50.432;8.680;2022-10-16T08:51:18;8.47;;;7.53;;
5688;SDS011;2869;50.432;8.680;2022-10-16T08:53:49;12.67;;;7.87;;
5688;SDS011;2869;50.432;8.680;2022-10-16T08:56:18;12.30;;;9.10;;
5688;SDS011;2869;50.432;8.680;2022-10-16T08:58:46;12.70;;;9.03;;
5688;SDS011;2869;50.432;8.680;2022-10-16T09:01:14;13.10;;;8.30;;
5688;SDS011;2869;50.432;8.680;2022-10-16T09:03:48;10.30;;;9.30;;
5688;SDS011;2869;50.432;8.680;2022-10-16T09:06:45;15.87;;;8.27;;
5688;SDS011;2869;50.432;8.680;2022-10-16T09:09:21;11.33;;;6.90;;
5688;SDS011;2869;50.432;8.680;2022-10-16T09:12:03;9.13;;;6.83;;
5688;SDS011;2869;50.432;8.680;2022-10-16T09:14:40;13.23;;;7.60;;
5688;SDS011;2869;50.432;8.680;2022-10-16T09:17:19;5.70;;;5.20;;
5688;SDS011;2869;50.432;8.680;2022-10-16T09:19:56;5.03;;;4.53;;
5688;SDS011;2869;50.432;8.680;2022-10-16T09:22:33;8.63;;;4.90;;
5688;SDS011;2869;50.432;8.680;2022-10-16T09:25:00;7.93;;;4.70;;
5688;SDS011;2869;50.432;8.680;2022-10-16T09:27:36;3.63;;;3.33;;
5688;SDS011;2869;50.432;8.680;2022-10-16T09:30:09;4.80;;;3.10;;
5688;SDS011;2869;50.432;8.680;2022-10-16T09:32:37;3.20;;;2.97;;
5688;SDS011;2869;50.432;8.680;2022-10-16T09:35:09;3.67;;;3.47;;
5688;SDS011;2869;50.432;8.680;2022-10-16T09:37:39;2.90;;;2.70;;
5688;SDS011;2869;50.432;8.680;2022-10-16T09:40:11;3.97;;;2.63;;
5688;SDS011;2869;50.432;8.680;2022-10-16T09:42:39;2.10;;;2.00;;
5688;SDS011;2869;50.432;8.680;2022-10-16T09:45:19;2.90;;;2.70;;
5688;SDS011;2869;50.432;8.680;2022-10-16T09:47:48;2.60;;;2.40;;
5688;SDS011;2869;50.432;8.680;2022-10-16T09:50:22;2.63;;;2.43;;
5688;SDS011;2869;50.432;8.680;2022-10-16T09:52:51;3.53;;;2.77;;
5688;SDS011;2869;50.432;8.680;2022-10-16T09:55:29;2.67;;;2.47;;
5688;SDS011;2869;50.432;8.680;2022-10-16T09:57:55;4.10;;;2.63;;
5688;SDS011;2869;50.432;8.680;2022-10-16T10:00:22;2.70;;;2.50;;
5688;SDS011;2869;50.432;8.680;2022-10-16T10:02:50;4.50;;;2.57;;
5688;SDS011;2869;50.432;8.680;2022-10-16T10:05:18;4.43;;;2.50;;
5688;SDS011;2869;50.432;8.680;2022-10-16T10:07:53;2.83;;;2.63;;
5688;SDS011;2869;50.432;8.680;2022-10-16T10:10:22;2.10;;;2.00;;
5688;SDS011;2869;50.432;8.680;2022-10-16T10:12:50;1.90;;;1.80;;
5688;SDS011;2869;50.432;8.680;2022-10-16T10:15:17;2.40;;;2.30;;
5688;SDS011;2869;50.432;8.680;2022-10-16T10:17:47;6.33;;;1.97;;
5688;SDS011;2869;50.432;8.680;2022-10-16T10:20:21;2.43;;;2.20;;
5688;SDS011;2869;50.432;8.680;2022-10-16T10:22:51;2.47;;;2.27;;
5688;SDS011;2869;50.432;8.680;2022-10-16T10:28:23;2.30;;;2.03;;
5688;SDS011;2869;50.432;8.680;2022-10-16T10:31:06;3.60;;;2.40;;
5688;SDS011;2869;50.432;8.680;2022-10-16T10:33:38;2.03;;;1.90;;
5688;SDS011;2869;50.432;8.680;2022-10-16T10:36:14;1.70;;;1.60;;
5688;SDS011;2869;50.432;8.680;2022-10-16T10:38:49;2.60;;;1.70;;
5688;SDS011;2869;50.432;8.680;2022-10-16T10:41:27;1.87;;;1.73;;
5688;SDS011;2869;50.432;8.680;2022-10-16T10:44:27;3.87;;;2.03;;
5688;SDS011;2869;50.432;8.680;2022-10-16T10:47:05;2.20;;;2.10;;
5688;SDS011;2869;50.432;8.680;2022-10-16T10:49:42;2.23;;;2.13;;
5688;SDS011;2869;50.432;8.680;2022-10-16T10:52:25;4.40;;;1.97;;
5688;SDS011;2869;50.432;8.680;2022-10-16T10:55:10;2.23;;;2.03;;
5688;SDS011;2869;50.432;8.680;2022-10-16T10:57:47;3.73;;;2.00;;
5688;SDS011;2869;50.432;8.680;2022-10-16T11:00:27;4.67;;;1.50;;
5688;SDS011;2869;50.432;8.680;2022-10-16T11:02:58;2.50;;;1.40;;
5688;SDS011;2869;50.432;8.680;2022-10-16T11:05:38;1.87;;;1.23;;
5688;SDS011;2869;50.432;8.680;2022-10-16T11:08:10;1.40;;;1.30;;
5688;SDS011;2869;50.432;8.680;2022-10-16T11:10:45;1.37;;;1.27;;
5688;SDS011;2869;50.432;8.680;2022-10-16T11:13:22;1.60;;;1.30;;
5688;SDS011;2869;50.432;8.680;2022-10-16T11:15:55;1.30;;;1.20;;
5688;SDS011;2869;50.432;8.680;2022-10-16T11:18:24;2.40;;;1.30;;
5688;SDS011;2869;50.432;8.680;2022-10-16T11:20:57;2.13;;;1.23;;
5688;SDS011;2869;50.432;8.680;2022-10-16T11:23:30;2.50;;;1.20;;
5688;SDS011;2869;50.432;8.680;2022-10-16T11:26:04;2.13;;;1.50;;
5688;SDS011;2869;50.432;8.680;2022-10-16T11:28:39;1.87;;;1.10;;
5688;SDS011;2869;50.432;8.680;2022-10-16T11:31:11;1.87;;;1.47;;
5688;SDS011;2869;50.432;8.680;2022-10-16T11:33:42;1.43;;;1.10;;
5688;SDS011;2869;50.432;8.680;2022-10-16T11:36:12;1.37;;;1.27;;
5688;SDS011;2869;50.432;8.680;2022-10-16T11:38:47;2.07;;;1.30;;
5688;SDS011;2869;50.432;8.680;2022-10-16T11:41:20;1.50;;;1.30;;
5688;SDS011;2869;50.432;8.680;2022-10-16T11:43:53;1.13;;;1.03;;
5688;SDS011;2869;50.432;8.680;2022-10-16T11:46:31;3.50;;;1.40;;
5688;SDS011;2869;50.432;8.680;2022-10-16T11:49:00;1.40;;;1.30;;
5688;SDS011;2869;50.432;8.680;2022-10-16T11:51:36;1.40;;;1.30;;
5688;SDS011;2869;50.432;8.680;2022-10-16T11:54:11;2.90;;;1.30;;
5688;SDS011;2869;50.432;8.680;2022-10-16T11:56:46;1.93;;;1.33;;
5688;SDS011;2869;50.432;8.680;2022-10-16T11:59:17;1.13;;;1.03;;
5688;SDS011;2869;50.432;8.680;2022-10-16T12:01:49;3.10;;;1.10;;
5688;SDS011;2869;50.432;8.680;2022-10-16T12:04:24;2.03;;;1.13;;
5688;SDS011;2869;50.432;8.680;2022-10-16T12:06:59;2.67;;;1.20;;
5688;SDS011;2869;50.432;8.680;2022-10-16T12:09:32;1.27;;;1.17;;
5688;SDS011;2869;50.432;8.680;2022-10-16T12:12:02;1.30;;;1.20;;
5688;SDS011;2869;50.432;8.680;2022-10-16T12:14:34;1.43;;;1.33;;
5688;SDS011;2869;50.432;8.680;2022-10-16T12:19:57;1.50;;;1.40;;
5688;SDS011;2869;50.432;8.680;2022-10-16T12:22:25;4.80;;;2.77;;
5688;SDS011;2869;50.432;8.680;2022-10-16T12:24:56;1.60;;;1.50;;
5688;SDS011;2869;50.432;8.680;2022-10-16T12:27:24;2.13;;;1.50;;
5688;SDS011;2869;50.432;8.680;2022-10-16T12:29:54;1.90;;;1.80;;
5688;SDS011;2869;50.432;8.680;2022-10-16T12:32:26;1.87;;;1.77;;
5688;SDS011;2869;50.432;8.680;2022-10-16T12:34:56;2.00;;;1.80;;
5688;SDS011;2869;50.432;8.680;2022-10-16T12:37:25;3.00;;;1.80;;
5688;SDS011;2869;50.432;8.680;2022-10-16T12:39:54;4.13;;;3.43;;
5688;SDS011;2869;50.432;8.680;2022-10-16T12:42:30;1.87;;;1.77;;
5688;SDS011;2869;50.432;8.680;2022-10-16T12:44:59;1.50;;;1.40;;
5688;SDS011;2869;50.432;8.680;2022-10-16T12:47:37;1.50;;;1.40;;
5688;SDS011;2869;50.432;8.680;2022-10-16T12:50:27;9.30;;;2.60;;
5688;SDS011;2869;50.432;8.680;2022-10-16T12:52:59;3.13;;;2.47;;
5688;SDS011;2869;50.432;8.680;2022-10-16T12:55:30;4.83;;;2.77;;
5688;SDS011;2869;50.432;8.680;2022-10-16T12:58:09;4.87;;;2.87;;
5688;SDS011;2869;50.432;8.680;2022-10-16T13:00:50;4.90;;;3.10;;
5688;SDS011;2869;50.432;8.680;2022-10-16T13:03:27;4.63;;;2.90;;
5688;SDS011;2869;50.432;8.680;2022-10-16T13:06:13;3.47;;;3.17;;
5688;SDS011;2869;50.432;8.680;2022-10-16T13:08:50;5.83;;;3.07;;
5688;SDS011;2869;50.432;8.680;2022-10-16T13:11:31;3.63;;;3.33;;
5688;SDS011;2869;50.432;8.680;2022-10-16T13:14:14;2.90;;;2.60;;
5688;SDS011;2869;50.432;8.680;2022-10-16T13:16:57;5.27;;;3.30;;
5688;SDS011;2869;50.432;8.680;2022-10-16T13:19:33;5.07;;;3.10;;
5688;SDS011;2869;50.432;8.680;2022-10-16T13:22:05;3.03;;;2.57;;
5688;SDS011;2869;50.432;8.680;2022-10-16T13:24:46;3.00;;;2.80;;
5688;SDS011;2869;50.432;8.680;2022-10-16T13:27:23;7.20;;;3.10;;
5688;SDS011;2869;50.432;8.680;2022-10-16T13:30:00;3.13;;;2.90;;
5688;SDS011;2869;50.432;8.680;2022-10-16T13:32:34;2.40;;;2.20;;
5688;SDS011;2869;50.432;8.680;2022-10-16T13:35:01;10.93;;;2.50;;
5688;SDS011;2869;50.432;8.680;2022-10-16T13:37:29;3.43;;;2.43;;
5688;SDS011;2869;50.432;8.680;2022-10-16T13:40:02;4.47;;;2.30;;
5688;SDS011;2869;50.432;8.680;2022-10-16T13:42:39;5.63;;;2.67;;
5688;SDS011;2869;50.432;8.680;2022-10-16T13:45:16;8.53;;;2.63;;
5688;SDS011;2869;50.432;8.680;2022-10-16T13:47:44;5.43;;;2.63;;
5688;SDS011;2869;50.432;8.680;2022-10-16T13:50:12;6.70;;;2.37;;
5688;SDS011;2869;50.432;8.680;2022-10-16T13:52:39;2.80;;;2.60;;
5688;SDS011;2869;50.432;8.680;2022-10-16T13:55:10;4.57;;;2.10;;
5688;SDS011;2869;50.432;8.680;2022-10-16T13:57:38;2.40;;;2.20;;
5688;SDS011;2869;50.432;8.680;2022-10-16T14:00:17;2.40;;;2.20;;
5688;SDS011;2869;50.432;8.680;2022-10-16T14:02:44;2.80;;;2.27;;
5688;SDS011;2869;50.432;8.680;2022-10-16T14:05:16;3.53;;;2.37;;
5688;SDS011;2869;50.432;8.680;2022-10-16T14:07:43;3.10;;;2.17;;
5688;SDS011;2869;50.432;8.680;2022-10-16T14:10:18;2.40;;;2.20;;
5688;SDS011;2869;50.432;8.680;2022-10-16T14:12:55;3.87;;;2.10;;
5688;SDS011;2869;50.432;8.680;2022-10-16T14:15:23;5.73;;;2.90;;
5688;SDS011;2869;50.432;8.680;2022-10-16T14:17:50;6.33;;;2.00;;
5688;SDS011;2869;50.432;8.680;2022-10-16T14:20:19;5.80;;;2.03;;
5688;SDS011;2869;50.432;8.680;2022-10-16T14:22:57;5.17;;;2.03;;
5688;SDS011;2869;50.432;8.680;2022-10-16T14:25:27;2.47;;;2.27;;
5688;SDS011;2869;50.432;8.680;2022-10-16T14:28:01;2.60;;;2.40;;
5688;SDS011;2869;50.432;8.680;2022-10-16T14:30:29;2.90;;;2.40;;
5688;SDS011;2869;50.432;8.680;2022-10-16T14:32:57;4.57;;;3.00;;
5688;SDS011;2869;50.432;8.680;2022-10-16T14:35:26;3.63;;;2.00;;
5688;SDS011;2869;50.432;8.680;2022-10-16T14:37:55;2.47;;;2.27;;
5688;SDS011;2869;50.432;8.680;2022-10-16T14:40:24;10.80;;;2.80;;
5688;SDS011;2869;50.432;8.680;2022-10-16T14:42:52;3.20;;;3.00;;
5688;SDS011;2869;50.432;8.680;2022-10-16T14:45:21;6.80;;;3.10;;
5688;SDS011;2869;50.432;8.680;2022-10-16T14:47:50;3.57;;;3.30;;
5688;SDS011;2869;50.432;8.680;2022-10-16T14:50:20;3.23;;;2.93;;
5688;SDS011;2869;50.432;8.680;2022-10-16T14:52:47;6.40;;;3.67;;
5688;SDS011;2869;50.432;8.680;2022-10-16T14:55:14;3.33;;;3.10;;
5688;SDS011;2869;50.432;8.680;2022-10-16T14:57:42;3.20;;;2.90;;
5688;SDS011;2869;50.432;8.680;2022-10-16T15:00:13;8.43;;;3.67;;
5688;SDS011;2869;50.432;8.680;2022-10-16T15:02:44;3.90;;;3.60;;
5688;SDS011;2869;50.432;8.680;2022-10-16T15:05:13;4.00;;;3.70;;
5688;SDS011;2869;50.432;8.680;2022-10-16T15:07:41;4.10;;;3.70;;
5688;SDS011;2869;50.432;8.680;2022-10-16T15:10:08;4.20;;;3.50;;
5688;SDS011;2869;50.432;8.680;2022-10-16T15:12:35;8.63;;;3.87;;
5688;SDS011;2869;50.432;8.680;2022-10-16T15:15:08;7.27;;;3.53;;
5688;SDS011;2869;50.432;8.680;2022-10-16T15:17:48;5.20;;;3.77;;
5688;SDS011;2869;50.432;8.680;2022-10-16T15:20:17;4.50;;;4.10;;
5688;SDS011;2869;50.432;8.680;2022-10-16T15:22:44;6.00;;;5.00;;
5688;SDS011;2869;50.432;8.680;2022-10-16T15:25:12;5.10;;;4.60;;
5688;SDS011;2869;50.432;8.680;2022-10-16T15:27:53;3.97;;;3.57;;
5688;SDS011;2869;50.432;8.680;2022-10-16T15:30:20;4.30;;;4.00;;
5688;SDS011;2869;50.432;8.680;2022-10-16T15:32:48;4.30;;;3.90;;
5688;SDS011;2869;50.432;8.680;2022-10-16T15:35:15;4.20;;;3.90;;
5688;SDS011;2869;50.432;8.680;2022-10-16T15:37:42;9.37;;;4.80;;